sensor_id;sensor_type;location;lat;lon;timestamp;temperature;humidity
81321;DHT22;70785;52.570;5.638;2023-06-24T00:00:33;18.10;65.40
81321;DHT22;70785;52.570;5.638;2023-06-24T00:02:59;18.00;65.50
81321;DHT22;70785;52.570;5.638;2023-06-24T00:05:28;18.00;65.70
81321;DHT22;70785;52.570;5.638;2023-06-24T00:07:54;17.90;65.80
81321;DHT22;70785;52.570;5.638;2023-06-24T00:10:22;17.80;65.80
81321;DHT22;70785;52.570;5.638;2023-06-24T00:12:49;17.80;65.80
81321;DHT22;70785;52.570;5.638;2023-06-24T00:15:15;17.80;65.90
81321;DHT22;70785;52.570;5.638;2023-06-24T00:17:41;17.80;65.80
81321;DHT22;70785;52.570;5.638;2023-06-24T00:20:07;17.80;65.80
81321;DHT22;70785;52.570;5.638;2023-06-24T00:22:37;17.70;65.80
81321;DHT22;70785;52.570;5.638;2023-06-24T00:25:05;17.60;65.80
81321;DHT22;70785;52.570;5.638;2023-06-24T00:27:31;17.60;65.70
81321;DHT22;70785;52.570;5.638;2023-06-24T00:29:57;17.60;65.70
81321;DHT22;70785;52.570;5.638;2023-06-24T00:32:23;17.60;65.70
81321;DHT22;70785;52.570;5.638;2023-06-24T00:34:49;17.60;65.80
81321;DHT22;70785;52.570;5.638;2023-06-24T00:37:16;17.60;65.80
81321;DHT22;70785;52.570;5.638;2023-06-24T00:39:42;17.50;65.80
81321;DHT22;70785;52.570;5.638;2023-06-24T00:42:09;17.50;65.80
81321;DHT22;70785;52.570;5.638;2023-06-24T00:44:35;17.50;65.80
81321;DHT22;70785;52.570;5.638;2023-06-24T00:47:03;17.50;65.80
81321;DHT22;70785;52.570;5.638;2023-06-24T00:49:29;17.50;65.80
81321;DHT22;70785;52.570;5.638;2023-06-24T00:51:56;17.50;65.80
81321;DHT22;70785;52.570;5.638;2023-06-24T00:54:22;17.50;65.90
81321;DHT22;70785;52.570;5.638;2023-06-24T00:56:58;17.50;65.90
81321;DHT22;70785;52.570;5.638;2023-06-24T00:59:28;17.50;66.00
81321;DHT22;70785;52.570;5.638;2023-06-24T01:01:56;17.50;66.00
81321;DHT22;70785;52.570;5.638;2023-06-24T01:04:22;17.50;66.10
81321;DHT22;70785;52.570;5.638;2023-06-24T01:06:50;17.50;66.10
81321;DHT22;70785;52.570;5.638;2023-06-24T01:09:17;17.50;66.20
81321;DHT22;70785;52.570;5.638;2023-06-24T01:11:43;17.40;66.20
81321;DHT22;70785;52.570;5.638;2023-06-24T01:14:09;17.40;66.20
81321;DHT22;70785;52.570;5.638;2023-06-24T01:16:37;17.40;66.20
81321;DHT22;70785;52.570;5.638;2023-06-24T01:19:38;17.40;66.30
81321;DHT22;70785;52.570;5.638;2023-06-24T01:33:21;17.30;66.40
81321;DHT22;70785;52.570;5.638;2023-06-24T01:35:49;17.20;66.30
81321;DHT22;70785;52.570;5.638;2023-06-24T01:38:22;17.20;66.50
81321;DHT22;70785;52.570;5.638;2023-06-24T01:40:50;17.20;66.70
81321;DHT22;70785;52.570;5.638;2023-06-24T01:43:18;17.20;66.70
81321;DHT22;70785;52.570;5.638;2023-06-24T01:45:50;17.20;66.80
81321;DHT22;70785;52.570;5.638;2023-06-24T01:48:23;17.30;66.90
81321;DHT22;70785;52.570;5.638;2023-06-24T01:51:01;17.20;67.00
81321;DHT22;70785;52.570;5.638;2023-06-24T01:53:32;17.20;67.10
81321;DHT22;70785;52.570;5.638;2023-06-24T01:56:00;17.20;67.00
81321;DHT22;70785;52.570;5.638;2023-06-24T01:58:28;17.30;67.00
81321;DHT22;70785;52.570;5.638;2023-06-24T02:00:57;17.30;67.00
81321;DHT22;70785;52.570;5.638;2023-06-24T02:03:24;17.20;67.10
81321;DHT22;70785;52.570;5.638;2023-06-24T02:05:52;17.30;67.10
81321;DHT22;70785;52.570;5.638;2023-06-24T02:08:20;17.20;67.10
81321;DHT22;70785;52.570;5.638;2023-06-24T02:10:48;17.20;67.20
81321;DHT22;70785;52.570;5.638;2023-06-24T02:13:16;17.20;67.20
81321;DHT22;70785;52.570;5.638;2023-06-24T02:15:43;17.20;67.20
81321;DHT22;70785;52.570;5.638;2023-06-24T02:18:12;17.20;67.20
81321;DHT22;70785;52.570;5.638;2023-06-24T02:20:40;17.20;67.30
81321;DHT22;70785;52.570;5.638;2023-06-24T02:23:10;17.20;67.40
81321;DHT22;70785;52.570;5.638;2023-06-24T02:25:38;17.10;67.50
81321;DHT22;70785;52.570;5.638;2023-06-24T02:28:06;17.10;67.50
81321;DHT22;70785;52.570;5.638;2023-06-24T02:30:38;17.00;67.60
81321;DHT22;70785;52.570;5.638;2023-06-24T02:33:05;17.00;67.70
81321;DHT22;70785;52.570;5.638;2023-06-24T02:35:31;17.00;67.70
81321;DHT22;70785;52.570;5.638;2023-06-24T02:37:57;17.00;67.80
81321;DHT22;70785;52.570;5.638;2023-06-24T02:40:23;17.00;67.80
81321;DHT22;70785;52.570;5.638;2023-06-24T02:42:50;17.00;67.90
81321;DHT22;70785;52.570;5.638;2023-06-24T02:45:16;16.90;67.90
81321;DHT22;70785;52.570;5.638;2023-06-24T02:47:45;16.90;67.90
81321;DHT22;70785;52.570;5.638;2023-06-24T02:50:12;16.90;68.00
81321;DHT22;70785;52.570;5.638;2023-06-24T02:52:39;16.90;68.00
81321;DHT22;70785;52.570;5.638;2023-06-24T02:55:08;16.80;68.00
81321;DHT22;70785;52.570;5.638;2023-06-24T02:57:35;16.80;68.00
81321;DHT22;70785;52.570;5.638;2023-06-24T03:00:21;16.80;68.00
81321;DHT22;70785;52.570;5.638;2023-06-24T03:03:10;16.80;68.00
81321;DHT22;70785;52.570;5.638;2023-06-24T03:05:46;16.70;68.00
81321;DHT22;70785;52.570;5.638;2023-06-24T03:08:14;16.80;68.00
81321;DHT22;70785;52.570;5.638;2023-06-24T03:10:42;16.80;68.00
81321;DHT22;70785;52.570;5.638;2023-06-24T03:13:14;16.80;68.00
81321;DHT22;70785;52.570;5.638;2023-06-24T03:15:46;16.80;68.00
81321;DHT22;70785;52.570;5.638;2023-06-24T03:18:12;16.70;68.00
81321;DHT22;70785;52.570;5.638;2023-06-24T03:20:39;16.70;68.10
81321;DHT22;70785;52.570;5.638;2023-06-24T03:23:09;16.70;68.20
81321;DHT22;70785;52.570;5.638;2023-06-24T03:25:36;16.70;68.20
81321;DHT22;70785;52.570;5.638;2023-06-24T03:28:03;16.70;68.30
81321;DHT22;70785;52.570;5.638;2023-06-24T03:30:36;16.70;68.30
81321;DHT22;70785;52.570;5.638;2023-06-24T03:33:02;16.70;68.30
81321;DHT22;70785;52.570;5.638;2023-06-24T03:35:29;16.70;68.40
81321;DHT22;70785;52.570;5.638;2023-06-24T03:38:00;16.70;68.40
81321;DHT22;70785;52.570;5.638;2023-06-24T03:40:26;16.70;68.40
81321;DHT22;70785;52.570;5.638;2023-06-24T03:42:52;16.70;68.50
81321;DHT22;70785;52.570;5.638;2023-06-24T03:45:18;16.60;68.60
81321;DHT22;70785;52.570;5.638;2023-06-24T03:47:45;16.70;68.60
81321;DHT22;70785;52.570;5.638;2023-06-24T03:50:12;16.60;68.60
81321;DHT22;70785;52.570;5.638;2023-06-24T03:52:38;16.60;68.60
81321;DHT22;70785;52.570;5.638;2023-06-24T03:55:05;16.70;68.70
81321;DHT22;70785;52.570;5.638;2023-06-24T03:57:32;16.70;68.70
81321;DHT22;70785;52.570;5.638;2023-06-24T03:59:58;16.70;68.60
81321;DHT22;70785;52.570;5.638;2023-06-24T04:02:24;16.70;68.60
81321;DHT22;70785;52.570;5.638;2023-06-24T04:04:50;16.70;68.70
81321;DHT22;70785;52.570;5.638;2023-06-24T04:07:19;16.70;68.60
81321;DHT22;70785;52.570;5.638;2023-06-24T04:09:55;16.70;68.70
81321;DHT22;70785;52.570;5.638;2023-06-24T04:12:22;16.80;68.60
81321;DHT22;70785;52.570;5.638;2023-06-24T04:14:49;16.80;68.60
81321;DHT22;70785;52.570;5.638;2023-06-24T04:17:15;16.80;68.60
81321;DHT22;70785;52.570;5.638;2023-06-24T04:19:41;16.90;68.60
81321;DHT22;70785;52.570;5.638;2023-06-24T04:22:08;16.90;68.50
81321;DHT22;70785;52.570;5.638;2023-06-24T04:24:34;16.90;68.50
81321;DHT22;70785;52.570;5.638;2023-06-24T04:27:00;17.00;68.50
81321;DHT22;70785;52.570;5.638;2023-06-24T04:29:26;17.00;68.40
81321;DHT22;70785;52.570;5.638;2023-06-24T04:31:52;17.00;68.40
81321;DHT22;70785;52.570;5.638;2023-06-24T04:34:19;17.10;68.30
81321;DHT22;70785;52.570;5.638;2023-06-24T04:36:45;17.20;68.30
81321;DHT22;70785;52.570;5.638;2023-06-24T04:39:11;17.20;68.20
81321;DHT22;70785;52.570;5.638;2023-06-24T04:41:37;17.20;68.20
81321;DHT22;70785;52.570;5.638;2023-06-24T04:44:03;17.40;68.10
81321;DHT22;70785;52.570;5.638;2023-06-24T04:46:29;17.40;68.00
81321;DHT22;70785;52.570;5.638;2023-06-24T04:48:56;17.50;67.90
81321;DHT22;70785;52.570;5.638;2023-06-24T04:51:22;17.60;67.80
81321;DHT22;70785;52.570;5.638;2023-06-24T04:53:48;17.70;67.60
81321;DHT22;70785;52.570;5.638;2023-06-24T04:56:14;17.80;67.40
81321;DHT22;70785;52.570;5.638;2023-06-24T04:58:40;17.80;67.30
81321;DHT22;70785;52.570;5.638;2023-06-24T05:01:06;18.00;67.30
81321;DHT22;70785;52.570;5.638;2023-06-24T05:03:32;18.10;67.20
81321;DHT22;70785;52.570;5.638;2023-06-24T05:05:59;18.20;67.00
81321;DHT22;70785;52.570;5.638;2023-06-24T05:08:25;18.30;66.90
81321;DHT22;70785;52.570;5.638;2023-06-24T05:10:51;18.30;66.70
81321;DHT22;70785;52.570;5.638;2023-06-24T05:13:17;18.50;66.50
81321;DHT22;70785;52.570;5.638;2023-06-24T05:15:43;18.60;66.30
81321;DHT22;70785;52.570;5.638;2023-06-24T05:18:09;18.60;66.20
81321;DHT22;70785;52.570;5.638;2023-06-24T05:20:35;18.70;66.10
81321;DHT22;70785;52.570;5.638;2023-06-24T05:23:01;18.70;66.00
81321;DHT22;70785;52.570;5.638;2023-06-24T05:25:28;18.70;65.90
81321;DHT22;70785;52.570;5.638;2023-06-24T05:27:54;18.70;65.80
81321;DHT22;70785;52.570;5.638;2023-06-24T05:30:20;18.70;65.70
81321;DHT22;70785;52.570;5.638;2023-06-24T05:32:46;18.80;65.60
81321;DHT22;70785;52.570;5.638;2023-06-24T05:35:12;18.80;65.50
81321;DHT22;70785;52.570;5.638;2023-06-24T05:37:38;18.90;65.40
81321;DHT22;70785;52.570;5.638;2023-06-24T05:40:05;19.00;65.20
81321;DHT22;70785;52.570;5.638;2023-06-24T05:42:32;19.20;65.00
81321;DHT22;70785;52.570;5.638;2023-06-24T05:44:59;19.30;64.90
81321;DHT22;70785;52.570;5.638;2023-06-24T05:47:25;19.50;64.70
81321;DHT22;70785;52.570;5.638;2023-06-24T05:49:51;19.60;64.50
81321;DHT22;70785;52.570;5.638;2023-06-24T05:52:17;19.70;64.30
81321;DHT22;70785;52.570;5.638;2023-06-24T05:54:44;20.00;64.10
81321;DHT22;70785;52.570;5.638;2023-06-24T05:57:10;20.20;63.80
81321;DHT22;70785;52.570;5.638;2023-06-24T05:59:36;20.40;63.40
81321;DHT22;70785;52.570;5.638;2023-06-24T06:02:02;20.50;63.00
81321;DHT22;70785;52.570;5.638;2023-06-24T06:04:28;20.70;62.90
81321;DHT22;70785;52.570;5.638;2023-06-24T06:06:54;21.00;62.50
81321;DHT22;70785;52.570;5.638;2023-06-24T06:09:21;21.10;61.90
81321;DHT22;70785;52.570;5.638;2023-06-24T06:11:48;21.10;61.70
81321;DHT22;70785;52.570;5.638;2023-06-24T06:14:14;21.10;61.80
81321;DHT22;70785;52.570;5.638;2023-06-24T06:16:40;21.10;61.80
81321;DHT22;70785;52.570;5.638;2023-06-24T06:19:06;21.30;61.80
81321;DHT22;70785;52.570;5.638;2023-06-24T06:21:32;21.40;61.60
81321;DHT22;70785;52.570;5.638;2023-06-24T06:23:58;21.50;61.50
81321;DHT22;70785;52.570;5.638;2023-06-24T06:26:26;21.50;61.40
81321;DHT22;70785;52.570;5.638;2023-06-24T06:28:52;21.50;61.30
81321;DHT22;70785;52.570;5.638;2023-06-24T06:31:19;21.40;61.30
81321;DHT22;70785;52.570;5.638;2023-06-24T06:33:45;21.40;61.30
81321;DHT22;70785;52.570;5.638;2023-06-24T06:36:11;21.30;61.30
81321;DHT22;70785;52.570;5.638;2023-06-24T06:38:37;21.30;61.30
81321;DHT22;70785;52.570;5.638;2023-06-24T06:41:03;21.30;61.30
81321;DHT22;70785;52.570;5.638;2023-06-24T06:43:29;21.40;61.00
81321;DHT22;70785;52.570;5.638;2023-06-24T06:45:55;21.50;60.90
81321;DHT22;70785;52.570;5.638;2023-06-24T06:48:22;21.50;60.90
81321;DHT22;70785;52.570;5.638;2023-06-24T06:50:48;21.60;60.80
81321;DHT22;70785;52.570;5.638;2023-06-24T06:53:14;21.70;60.50
81321;DHT22;70785;52.570;5.638;2023-06-24T06:55:40;21.90;60.30
81321;DHT22;70785;52.570;5.638;2023-06-24T06:58:08;22.00;60.10
81321;DHT22;70785;52.570;5.638;2023-06-24T07:00:34;22.10;59.70
81321;DHT22;70785;52.570;5.638;2023-06-24T07:03:00;22.20;59.60
81321;DHT22;70785;52.570;5.638;2023-06-24T07:05:26;22.20;59.50
81321;DHT22;70785;52.570;5.638;2023-06-24T07:07:53;22.30;59.40
81321;DHT22;70785;52.570;5.638;2023-06-24T07:10:20;22.40;59.30
81321;DHT22;70785;52.570;5.638;2023-06-24T07:12:46;22.50;59.30
81321;DHT22;70785;52.570;5.638;2023-06-24T07:15:12;22.60;59.00
81321;DHT22;70785;52.570;5.638;2023-06-24T07:17:38;22.70;58.90
81321;DHT22;70785;52.570;5.638;2023-06-24T07:20:05;22.80;58.90
81321;DHT22;70785;52.570;5.638;2023-06-24T07:22:31;22.90;58.70
81321;DHT22;70785;52.570;5.638;2023-06-24T07:24:57;23.00;58.40
81321;DHT22;70785;52.570;5.638;2023-06-24T07:27:23;23.00;58.30
81321;DHT22;70785;52.570;5.638;2023-06-24T07:29:49;23.20;58.10
81321;DHT22;70785;52.570;5.638;2023-06-24T07:32:16;23.30;58.00
81321;DHT22;70785;52.570;5.638;2023-06-24T07:34:42;23.30;57.80
81321;DHT22;70785;52.570;5.638;2023-06-24T07:37:08;23.50;57.80
81321;DHT22;70785;52.570;5.638;2023-06-24T07:39:34;23.50;57.80
81321;DHT22;70785;52.570;5.638;2023-06-24T07:42:00;23.40;57.60
81321;DHT22;70785;52.570;5.638;2023-06-24T07:44:26;23.20;57.70
81321;DHT22;70785;52.570;5.638;2023-06-24T07:46:52;22.90;58.00
81321;DHT22;70785;52.570;5.638;2023-06-24T07:49:18;22.80;58.30
81321;DHT22;70785;52.570;5.638;2023-06-24T07:51:44;22.70;58.50
81321;DHT22;70785;52.570;5.638;2023-06-24T07:54:13;22.70;58.70
81321;DHT22;70785;52.570;5.638;2023-06-24T07:56:39;22.80;58.70
81321;DHT22;70785;52.570;5.638;2023-06-24T07:59:05;22.90;58.70
81321;DHT22;70785;52.570;5.638;2023-06-24T08:01:31;23.00;58.70
81321;DHT22;70785;52.570;5.638;2023-06-24T08:03:57;23.00;58.70
81321;DHT22;70785;52.570;5.638;2023-06-24T08:06:26;23.00;58.50
81321;DHT22;70785;52.570;5.638;2023-06-24T08:08:53;23.00;58.50
81321;DHT22;70785;52.570;5.638;2023-06-24T08:11:19;23.20;58.30
81321;DHT22;70785;52.570;5.638;2023-06-24T08:13:45;23.30;57.90
81321;DHT22;70785;52.570;5.638;2023-06-24T08:16:11;23.40;57.50
81321;DHT22;70785;52.570;5.638;2023-06-24T08:18:37;23.50;57.40
81321;DHT22;70785;52.570;5.638;2023-06-24T08:21:03;23.50;57.40
81321;DHT22;70785;52.570;5.638;2023-06-24T08:23:29;23.60;57.50
81321;DHT22;70785;52.570;5.638;2023-06-24T08:25:56;23.70;57.30
81321;DHT22;70785;52.570;5.638;2023-06-24T08:28:22;23.80;57.10
81321;DHT22;70785;52.570;5.638;2023-06-24T08:30:48;23.90;56.90
81321;DHT22;70785;52.570;5.638;2023-06-24T08:33:14;24.00;56.60
81321;DHT22;70785;52.570;5.638;2023-06-24T08:35:40;24.20;56.40
81321;DHT22;70785;52.570;5.638;2023-06-24T08:38:06;24.30;56.00
81321;DHT22;70785;52.570;5.638;2023-06-24T08:40:32;24.40;55.80
81321;DHT22;70785;52.570;5.638;2023-06-24T08:42:58;24.40;55.30
81321;DHT22;70785;52.570;5.638;2023-06-24T08:45:24;24.30;55.30
81321;DHT22;70785;52.570;5.638;2023-06-24T08:47:52;24.40;55.50
81321;DHT22;70785;52.570;5.638;2023-06-24T08:50:21;24.50;55.40
81321;DHT22;70785;52.570;5.638;2023-06-24T08:52:51;24.60;55.30
81321;DHT22;70785;52.570;5.638;2023-06-24T08:55:20;24.70;55.40
81321;DHT22;70785;52.570;5.638;2023-06-24T08:57:48;24.90;55.40
81321;DHT22;70785;52.570;5.638;2023-06-24T09:00:14;25.00;55.50
81321;DHT22;70785;52.570;5.638;2023-06-24T09:02:40;25.00;55.50
81321;DHT22;70785;52.570;5.638;2023-06-24T09:05:07;25.20;55.50
81321;DHT22;70785;52.570;5.638;2023-06-24T09:07:34;25.20;55.20
81321;DHT22;70785;52.570;5.638;2023-06-24T09:10:00;25.30;55.20
81321;DHT22;70785;52.570;5.638;2023-06-24T09:12:26;25.30;55.20
81321;DHT22;70785;52.570;5.638;2023-06-24T09:14:53;25.40;55.20
81321;DHT22;70785;52.570;5.638;2023-06-24T09:17:19;25.40;55.20
81321;DHT22;70785;52.570;5.638;2023-06-24T09:19:49;25.30;55.00
81321;DHT22;70785;52.570;5.638;2023-06-24T09:22:15;25.20;55.20
81321;DHT22;70785;52.570;5.638;2023-06-24T09:24:46;25.30;55.40
81321;DHT22;70785;52.570;5.638;2023-06-24T09:27:14;25.50;55.40
81321;DHT22;70785;52.570;5.638;2023-06-24T09:29:42;25.60;55.10
81321;DHT22;70785;52.570;5.638;2023-06-24T09:32:09;25.80;55.00
81321;DHT22;70785;52.570;5.638;2023-06-24T09:34:35;25.80;54.90
81321;DHT22;70785;52.570;5.638;2023-06-24T09:37:01;25.90;55.00
81321;DHT22;70785;52.570;5.638;2023-06-24T09:39:28;26.00;54.80
81321;DHT22;70785;52.570;5.638;2023-06-24T09:42:01;26.20;54.60
81321;DHT22;70785;52.570;5.638;2023-06-24T09:44:28;26.30;54.70
81321;DHT22;70785;52.570;5.638;2023-06-24T09:46:55;26.40;55.00
81321;DHT22;70785;52.570;5.638;2023-06-24T09:49:24;26.40;55.30
81321;DHT22;70785;52.570;5.638;2023-06-24T09:51:56;26.30;55.50
81321;DHT22;70785;52.570;5.638;2023-06-24T09:54:26;26.20;55.10
81321;DHT22;70785;52.570;5.638;2023-06-24T09:56:53;26.20;55.10
81321;DHT22;70785;52.570;5.638;2023-06-24T09:59:20;26.30;55.10
81321;DHT22;70785;52.570;5.638;2023-06-24T10:01:48;26.40;55.10
81321;DHT22;70785;52.570;5.638;2023-06-24T10:04:17;26.30;55.20
81321;DHT22;70785;52.570;5.638;2023-06-24T10:06:44;26.40;55.50
81321;DHT22;70785;52.570;5.638;2023-06-24T10:09:10;26.40;54.60
81321;DHT22;70785;52.570;5.638;2023-06-24T10:11:39;26.50;54.40
81321;DHT22;70785;52.570;5.638;2023-06-24T10:14:06;26.40;54.70
81321;DHT22;70785;52.570;5.638;2023-06-24T10:16:32;26.50;54.80
81321;DHT22;70785;52.570;5.638;2023-06-24T10:19:01;26.70;54.30
81321;DHT22;70785;52.570;5.638;2023-06-24T10:21:47;26.70;54.10
81321;DHT22;70785;52.570;5.638;2023-06-24T10:24:34;26.80;53.60
81321;DHT22;70785;52.570;5.638;2023-06-24T10:27:05;26.90;53.40
81321;DHT22;70785;52.570;5.638;2023-06-24T10:29:36;26.90;53.40
81321;DHT22;70785;52.570;5.638;2023-06-24T10:32:08;27.00;53.10
81321;DHT22;70785;52.570;5.638;2023-06-24T10:42:28;27.20;52.60
81321;DHT22;70785;52.570;5.638;2023-06-24T10:47:41;27.20;52.10
81321;DHT22;70785;52.570;5.638;2023-06-24T10:50:09;27.20;52.40
81321;DHT22;70785;52.570;5.638;2023-06-24T10:52:40;27.20;52.10
81321;DHT22;70785;52.570;5.638;2023-06-24T10:55:07;27.20;51.90
81321;DHT22;70785;52.570;5.638;2023-06-24T10:57:33;27.20;51.80
81321;DHT22;70785;52.570;5.638;2023-06-24T11:00:01;27.20;51.80
81321;DHT22;70785;52.570;5.638;2023-06-24T11:02:27;27.20;51.50
81321;DHT22;70785;52.570;5.638;2023-06-24T11:04:58;27.20;51.30
81321;DHT22;70785;52.570;5.638;2023-06-24T11:07:29;27.20;51.20
81321;DHT22;70785;52.570;5.638;2023-06-24T11:10:13;27.20;51.10
81321;DHT22;70785;52.570;5.638;2023-06-24T11:12:40;27.10;51.30
81321;DHT22;70785;52.570;5.638;2023-06-24T11:15:08;27.20;51.00
81321;DHT22;70785;52.570;5.638;2023-06-24T11:17:36;27.30;51.00
81321;DHT22;70785;52.570;5.638;2023-06-24T11:20:10;27.30;50.80
81321;DHT22;70785;52.570;5.638;2023-06-24T11:22:37;27.30;50.50
81321;DHT22;70785;52.570;5.638;2023-06-24T11:25:03;27.40;50.50
81321;DHT22;70785;52.570;5.638;2023-06-24T11:27:31;27.50;50.40
81321;DHT22;70785;52.570;5.638;2023-06-24T11:29:59;27.50;50.00
81321;DHT22;70785;52.570;5.638;2023-06-24T11:32:41;27.40;50.20
81321;DHT22;70785;52.570;5.638;2023-06-24T11:35:11;27.40;50.30
81321;DHT22;70785;52.570;5.638;2023-06-24T11:37:45;27.50;50.50
81321;DHT22;70785;52.570;5.638;2023-06-24T11:40:12;27.40;50.50
81321;DHT22;70785;52.570;5.638;2023-06-24T11:42:40;27.50;50.70
81321;DHT22;70785;52.570;5.638;2023-06-24T11:45:08;27.40;50.50
81321;DHT22;70785;52.570;5.638;2023-06-24T11:47:36;27.40;50.90
81321;DHT22;70785;52.570;5.638;2023-06-24T11:50:04;27.50;51.20
81321;DHT22;70785;52.570;5.638;2023-06-24T11:52:39;27.70;51.00
81321;DHT22;70785;52.570;5.638;2023-06-24T11:55:27;27.80;50.40
81321;DHT22;70785;52.570;5.638;2023-06-24T11:58:00;27.80;50.50
81321;DHT22;70785;52.570;5.638;2023-06-24T12:00:36;27.80;50.50
81321;DHT22;70785;52.570;5.638;2023-06-24T12:03:05;27.70;50.30
81321;DHT22;70785;52.570;5.638;2023-06-24T12:05:33;27.70;50.30
81321;DHT22;70785;52.570;5.638;2023-06-24T12:08:02;27.70;50.60
81321;DHT22;70785;52.570;5.638;2023-06-24T12:10:30;27.70;50.40
81321;DHT22;70785;52.570;5.638;2023-06-24T12:12:59;27.70;50.30
81321;DHT22;70785;52.570;5.638;2023-06-24T12:15:26;27.70;50.20
81321;DHT22;70785;52.570;5.638;2023-06-24T12:17:53;27.70;50.20
81321;DHT22;70785;52.570;5.638;2023-06-24T12:20:19;27.70;50.50
81321;DHT22;70785;52.570;5.638;2023-06-24T12:22:47;27.70;50.00
81321;DHT22;70785;52.570;5.638;2023-06-24T12:25:13;27.60;50.20
81321;DHT22;70785;52.570;5.638;2023-06-24T12:27:42;27.70;50.30
81321;DHT22;70785;52.570;5.638;2023-06-24T12:30:09;27.70;50.20
81321;DHT22;70785;52.570;5.638;2023-06-24T12:32:36;27.70;50.70
81321;DHT22;70785;52.570;5.638;2023-06-24T12:35:03;27.80;50.10
81321;DHT22;70785;52.570;5.638;2023-06-24T12:37:33;27.70;50.30
81321;DHT22;70785;52.570;5.638;2023-06-24T12:40:03;27.70;50.50
81321;DHT22;70785;52.570;5.638;2023-06-24T12:42:29;27.80;50.40
81321;DHT22;70785;52.570;5.638;2023-06-24T12:44:56;28.00;50.20
81321;DHT22;70785;52.570;5.638;2023-06-24T12:47:22;28.00;50.00
81321;DHT22;70785;52.570;5.638;2023-06-24T12:49:49;27.90;50.10
81321;DHT22;70785;52.570;5.638;2023-06-24T12:52:15;28.00;50.30
81321;DHT22;70785;52.570;5.638;2023-06-24T12:54:42;28.00;50.20
81321;DHT22;70785;52.570;5.638;2023-06-24T12:57:08;28.00;50.50
81321;DHT22;70785;52.570;5.638;2023-06-24T12:59:34;28.00;50.80
81321;DHT22;70785;52.570;5.638;2023-06-24T13:02:01;28.00;50.80
81321;DHT22;70785;52.570;5.638;2023-06-24T13:04:27;28.10;51.20
81321;DHT22;70785;52.570;5.638;2023-06-24T13:06:53;28.10;51.10
81321;DHT22;70785;52.570;5.638;2023-06-24T13:09:20;28.10;50.90
81321;DHT22;70785;52.570;5.638;2023-06-24T13:11:46;28.10;50.70
81321;DHT22;70785;52.570;5.638;2023-06-24T13:14:13;28.10;50.80
81321;DHT22;70785;52.570;5.638;2023-06-24T13:16:39;28.10;50.50
81321;DHT22;70785;52.570;5.638;2023-06-24T13:19:05;28.10;50.80
81321;DHT22;70785;52.570;5.638;2023-06-24T13:21:31;28.10;51.00
81321;DHT22;70785;52.570;5.638;2023-06-24T13:23:57;28.30;50.90
81321;DHT22;70785;52.570;5.638;2023-06-24T13:26:23;28.30;50.90
81321;DHT22;70785;52.570;5.638;2023-06-24T13:28:50;28.50;50.90
81321;DHT22;70785;52.570;5.638;2023-06-24T13:31:16;28.60;50.60
81321;DHT22;70785;52.570;5.638;2023-06-24T13:33:42;28.60;50.50
81321;DHT22;70785;52.570;5.638;2023-06-24T13:36:25;28.60;50.30
81321;DHT22;70785;52.570;5.638;2023-06-24T13:38:53;28.60;50.20
81321;DHT22;70785;52.570;5.638;2023-06-24T13:41:19;28.60;49.90
81321;DHT22;70785;52.570;5.638;2023-06-24T13:43:45;28.50;50.20
81321;DHT22;70785;52.570;5.638;2023-06-24T13:46:11;28.70;50.10
81321;DHT22;70785;52.570;5.638;2023-06-24T13:48:37;28.90;50.00
81321;DHT22;70785;52.570;5.638;2023-06-24T13:51:03;29.10;50.30
81321;DHT22;70785;52.570;5.638;2023-06-24T13:53:29;29.40;49.90
81321;DHT22;70785;52.570;5.638;2023-06-24T13:55:56;29.50;49.80
81321;DHT22;70785;52.570;5.638;2023-06-24T13:58:22;29.80;49.70
81321;DHT22;70785;52.570;5.638;2023-06-24T14:00:48;30.10;49.10
81321;DHT22;70785;52.570;5.638;2023-06-24T14:03:14;30.40;49.30
81321;DHT22;70785;52.570;5.638;2023-06-24T14:05:40;30.70;49.00
81321;DHT22;70785;52.570;5.638;2023-06-24T14:08:06;31.00;48.90
81321;DHT22;70785;52.570;5.638;2023-06-24T14:10:32;31.20;48.40
81321;DHT22;70785;52.570;5.638;2023-06-24T14:12:58;31.30;48.20
81321;DHT22;70785;52.570;5.638;2023-06-24T14:15:24;31.50;48.00
81321;DHT22;70785;52.570;5.638;2023-06-24T14:17:50;31.60;47.70
81321;DHT22;70785;52.570;5.638;2023-06-24T14:20:17;31.70;47.30
81321;DHT22;70785;52.570;5.638;2023-06-24T14:22:43;31.70;47.30
81321;DHT22;70785;52.570;5.638;2023-06-24T14:25:10;31.80;47.30
81321;DHT22;70785;52.570;5.638;2023-06-24T14:27:36;32.00;47.00
81321;DHT22;70785;52.570;5.638;2023-06-24T14:30:04;32.00;47.10
81321;DHT22;70785;52.570;5.638;2023-06-24T14:32:30;31.90;47.00
81321;DHT22;70785;52.570;5.638;2023-06-24T14:34:57;31.70;47.70
81321;DHT22;70785;52.570;5.638;2023-06-24T14:37:23;31.60;48.00
81321;DHT22;70785;52.570;5.638;2023-06-24T14:39:49;31.60;48.20
81321;DHT22;70785;52.570;5.638;2023-06-24T14:42:15;31.60;48.10
81321;DHT22;70785;52.570;5.638;2023-06-24T14:44:41;31.50;48.60
81321;DHT22;70785;52.570;5.638;2023-06-24T14:47:07;31.10;48.70
81321;DHT22;70785;52.570;5.638;2023-06-24T14:49:33;30.60;49.40
81321;DHT22;70785;52.570;5.638;2023-06-24T14:51:59;30.30;50.00
81321;DHT22;70785;52.570;5.638;2023-06-24T14:54:25;29.90;50.20
81321;DHT22;70785;52.570;5.638;2023-06-24T14:56:51;29.70;50.50
81321;DHT22;70785;52.570;5.638;2023-06-24T14:59:17;29.90;50.50
81321;DHT22;70785;52.570;5.638;2023-06-24T15:01:44;30.30;49.90
81321;DHT22;70785;52.570;5.638;2023-06-24T15:04:10;30.50;49.30
81321;DHT22;70785;52.570;5.638;2023-06-24T15:06:36;30.70;48.50
81321;DHT22;70785;52.570;5.638;2023-06-24T15:09:02;30.80;48.40
81321;DHT22;70785;52.570;5.638;2023-06-24T15:11:29;30.70;48.50
81321;DHT22;70785;52.570;5.638;2023-06-24T15:13:55;30.70;48.60
81321;DHT22;70785;52.570;5.638;2023-06-24T15:16:21;30.70;48.80
81321;DHT22;70785;52.570;5.638;2023-06-24T15:18:47;30.80;48.50
81321;DHT22;70785;52.570;5.638;2023-06-24T15:21:14;30.80;48.50
81321;DHT22;70785;52.570;5.638;2023-06-24T15:23:40;30.90;48.40
81321;DHT22;70785;52.570;5.638;2023-06-24T15:26:06;30.80;48.70
81321;DHT22;70785;52.570;5.638;2023-06-24T15:28:32;31.00;48.40
81321;DHT22;70785;52.570;5.638;2023-06-24T15:30:59;31.20;48.30
81321;DHT22;70785;52.570;5.638;2023-06-24T15:33:26;31.40;48.00
81321;DHT22;70785;52.570;5.638;2023-06-24T15:35:52;31.60;47.30
81321;DHT22;70785;52.570;5.638;2023-06-24T15:38:19;31.60;47.10
81321;DHT22;70785;52.570;5.638;2023-06-24T15:40:45;31.80;47.10
81321;DHT22;70785;52.570;5.638;2023-06-24T15:43:12;31.80;47.20
81321;DHT22;70785;52.570;5.638;2023-06-24T15:45:39;31.90;46.60
81321;DHT22;70785;52.570;5.638;2023-06-24T15:48:05;31.60;46.70
81321;DHT22;70785;52.570;5.638;2023-06-24T15:50:31;31.40;46.80
81321;DHT22;70785;52.570;5.638;2023-06-24T15:52:58;31.10;46.80